createdAt,value
2022-10-25T00:01:23.811Z,78.45
2022-10-25T00:03:53.329Z,79.50
2022-10-25T00:06:21.643Z,79.44
2022-10-25T00:08:50.023Z,80.46
2022-10-25T00:11:21.945Z,80.99
2022-10-25T00:13:51.288Z,81.07
2022-10-25T00:16:22.980Z,80.75
2022-10-25T00:18:51.095Z,81.31
2022-10-25T00:21:21.151Z,82.24
2022-10-25T00:23:49.474Z,83.62
2022-10-25T00:26:17.538Z,84.45
2022-10-25T00:28:45.511Z,85.10
2022-10-25T00:31:15.195Z,87.33
2022-10-25T00:33:44.512Z,87.37
2022-10-25T00:36:14.878Z,89.26
2022-10-25T00:38:45.831Z,90.87
2022-10-25T00:41:14.659Z,91.07
2022-10-25T00:43:45.046Z,90.93
2022-10-25T00:46:19.900Z,90.83
2022-10-25T00:48:54.893Z,92.40
2022-10-25T00:51:27.073Z,96.56
2022-10-25T00:53:57.288Z,98.37
2022-10-25T00:56:29.047Z,100.00
2022-10-25T00:58:59.827Z,100.00
2022-10-25T01:01:28.736Z,100.00
2022-10-25T01:04:01.158Z,100.00
2022-10-25T01:06:33.326Z,100.00
2022-10-25T01:09:04.027Z,100.00
2022-10-25T01:11:31.960Z,100.00
2022-10-25T01:14:00.317Z,100.00
2022-10-25T01:16:33.768Z,100.00
2022-10-25T01:19:11.254Z,100.00
2022-10-25T01:21:46.459Z,100.00
2022-10-25T01:24:58.868Z,100.00
2022-10-25T01:27:53.101Z,100.00
2022-10-25T01:30:23.443Z,100.00
2022-10-25T01:33:05.335Z,100.00
2022-10-25T01:35:40.107Z,100.00
2022-10-25T01:38:29.157Z,100.00
2022-10-25T01:41:07.980Z,100.00
2022-10-25T01:43:42.551Z,100.00
2022-10-25T01:46:16.783Z,100.00
2022-10-25T01:48:49.111Z,100.00
2022-10-25T01:51:19.023Z,100.00
2022-10-25T01:53:49.580Z,100.00
2022-10-25T01:56:25.218Z,100.00
2022-10-25T01:59:12.345Z,100.00
2022-10-25T02:01:49.748Z,100.00
2022-10-25T02:04:29.537Z,100.00
2022-10-25T02:07:03.343Z,100.00
2022-10-25T02:09:37.553Z,100.00
2022-10-25T02:12:12.273Z,100.00
2022-10-25T02:14:43.706Z,100.00
2022-10-25T02:17:17.538Z,100.00
2022-10-25T02:19:49.830Z,100.00
2022-10-25T02:22:20.526Z,100.00
2022-10-25T02:24:51.411Z,100.00
2022-10-25T02:27:23.246Z,100.00
2022-10-25T02:29:53.294Z,100.00
2022-10-25T02:32:21.490Z,100.00
2022-10-25T02:34:51.664Z,100.00
2022-10-25T02:37:20.102Z,100.00
2022-10-25T02:39:48.817Z,100.00
2022-10-25T02:42:16.784Z,100.00
2022-10-25T02:44:44.709Z,100.00
2022-10-25T02:47:13.079Z,100.00
2022-10-25T02:49:41.504Z,100.00
2022-10-25T02:52:10.775Z,100.00
2022-10-25T02:54:38.679Z,100.00
2022-10-25T02:57:06.627Z,100.00
2022-10-25T02:59:34.543Z,100.00
2022-10-25T03:02:02.492Z,100.00
2022-10-25T03:04:30.478Z,100.00
2022-10-25T03:06:58.984Z,100.00
2022-10-25T03:09:28.320Z,100.00
2022-10-25T03:11:56.194Z,100.00
2022-10-25T03:14:24.163Z,100.00
2022-10-25T03:16:52.172Z,100.00
2022-10-25T03:19:20.042Z,100.00
2022-10-25T03:21:47.942Z,100.00
2022-10-25T03:24:15.976Z,100.00
2022-10-25T03:26:45.224Z,100.00
2022-10-25T03:29:13.173Z,100.00
2022-10-25T03:31:41.088Z,100.00
2022-10-25T03:34:09.108Z,100.00
2022-10-25T03:36:37.010Z,100.00
2022-10-25T03:39:05.015Z,100.00
2022-10-25T03:41:33.167Z,100.00
2022-10-25T03:44:02.492Z,100.00
2022-10-25T03:46:30.463Z,100.00
2022-10-25T03:48:58.445Z,100.00
2022-10-25T03:51:26.413Z,100.00
2022-10-25T03:53:54.364Z,100.00
2022-10-25T03:56:22.402Z,100.00
2022-10-25T03:58:50.360Z,100.00
2022-10-25T04:01:19.793Z,100.00
2022-10-25T04:03:47.815Z,100.00
2022-10-25T04:06:15.818Z,100.00
2022-10-25T04:08:43.771Z,100.00
2022-10-25T04:11:11.648Z,100.00
2022-10-25T04:13:39.647Z,100.00
2022-10-25T04:16:08.838Z,100.00
2022-10-25T04:18:38.532Z,100.00
2022-10-25T04:21:06.835Z,100.00
2022-10-25T04:23:34.832Z,100.00
2022-10-25T04:26:03.072Z,100.00
2022-10-25T04:28:31.128Z,100.00
2022-10-25T04:30:59.262Z,100.00
2022-10-25T04:33:27.396Z,100.00
2022-10-25T04:35:58.083Z,100.00
2022-10-25T04:38:26.308Z,100.00
2022-10-25T04:40:55.619Z,100.00
2022-10-25T04:43:23.734Z,100.00
2022-10-25T04:45:51.984Z,100.00
2022-10-25T04:48:20.098Z,100.00
2022-10-25T04:50:48.795Z,100.00
2022-10-25T04:53:18.210Z,100.00
2022-10-25T04:55:46.464Z,100.00
2022-10-25T04:58:14.410Z,100.00
2022-10-25T05:00:42.368Z,100.00
2022-10-25T05:03:13.278Z,100.00
2022-10-25T05:05:41.445Z,100.00
2022-10-25T05:08:09.374Z,100.00
2022-10-25T05:10:38.788Z,100.00
2022-10-25T05:13:06.700Z,100.00
2022-10-25T05:15:34.735Z,100.00
2022-10-25T05:18:03.099Z,100.00
2022-10-25T05:20:31.249Z,100.00
2022-10-25T05:22:59.140Z,100.00
2022-10-25T05:25:27.025Z,100.00
2022-10-25T05:27:56.329Z,100.00
2022-10-25T05:30:24.225Z,100.00
2022-10-25T05:32:56.720Z,100.00
2022-10-25T05:35:24.668Z,100.00
2022-10-25T05:37:52.613Z,100.00
2022-10-25T05:40:20.508Z,100.00
2022-10-25T05:42:48.737Z,100.00
2022-10-25T05:45:18.196Z,100.00
2022-10-25T05:47:46.139Z,100.00
2022-10-25T05:50:14.192Z,100.00
2022-10-25T05:52:43.416Z,100.00
2022-10-25T05:55:11.675Z,100.00
2022-10-25T05:57:39.605Z,100.00
2022-10-25T06:00:08.808Z,100.00
2022-10-25T06:02:38.076Z,100.00
2022-10-25T06:05:06.402Z,100.00
2022-10-25T06:07:34.382Z,100.00
2022-10-25T06:10:02.247Z,100.00
2022-10-25T06:12:30.193Z,100.00
2022-10-25T06:14:58.552Z,100.00
2022-10-25T06:17:26.670Z,100.00
2022-10-25T06:19:56.146Z,100.00
2022-10-25T06:22:24.172Z,100.00
2022-10-25T06:24:52.127Z,100.00
2022-10-25T06:27:20.078Z,100.00
2022-10-25T06:29:47.939Z,100.00
2022-10-25T06:32:15.872Z,100.00
2022-10-25T06:34:43.819Z,100.00
2022-10-25T06:37:13.148Z,100.00
2022-10-25T06:39:41.056Z,100.00
2022-10-25T06:42:09.007Z,100.00
2022-10-25T06:44:36.953Z,100.00
2022-10-25T06:47:16.869Z,100.00
2022-10-25T06:49:46.447Z,100.00
2022-10-25T06:52:15.889Z,100.00
2022-10-25T06:54:43.924Z,100.00
2022-10-25T06:57:11.932Z,100.00
2022-10-25T06:59:39.860Z,100.00
2022-10-25T07:02:07.959Z,100.00
2022-10-25T07:04:35.911Z,100.00
2022-10-25T07:07:03.862Z,100.00
2022-10-25T07:09:33.149Z,100.00
2022-10-25T07:12:01.063Z,100.00
2022-10-25T07:14:29.009Z,100.00
2022-10-25T07:16:56.988Z,100.00
2022-10-25T07:19:25.134Z,100.00
2022-10-25T07:21:53.525Z,100.00
2022-10-25T07:24:21.836Z,100.00
2022-10-25T07:26:51.193Z,100.00
2022-10-25T07:29:19.237Z,100.00
2022-10-25T07:31:47.288Z,100.00
2022-10-25T07:34:16.102Z,100.00
2022-10-25T07:36:44.145Z,100.00
2022-10-25T07:39:12.179Z,100.00
2022-10-25T07:41:40.143Z,100.00
2022-10-25T07:44:15.436Z,100.00
2022-10-25T07:46:44.964Z,100.00
2022-10-25T07:49:13.115Z,100.00
2022-10-25T07:51:43.406Z,100.00
2022-10-25T07:54:11.421Z,100.00
2022-10-25T07:56:39.640Z,100.00
2022-10-25T07:59:09.108Z,100.00
2022-10-25T08:01:37.689Z,100.00
2022-10-25T08:04:05.951Z,100.00
2022-10-25T08:06:36.162Z,100.00
2022-10-25T08:09:14.282Z,100.00
2022-10-25T08:11:43.171Z,100.00
2022-10-25T08:14:12.460Z,100.00
2022-10-25T08:16:40.476Z,100.00
2022-10-25T08:19:08.613Z,100.00
2022-10-25T08:21:36.508Z,100.00
2022-10-25T08:24:04.707Z,100.00
2022-10-25T08:26:36.624Z,100.00
2022-10-25T08:29:05.203Z,100.00
2022-10-25T08:31:34.504Z,100.00
2022-10-25T08:34:02.607Z,100.00
2022-10-25T08:36:30.669Z,100.00
2022-10-25T08:38:58.535Z,100.00
2022-10-25T08:41:40.143Z,100.00
2022-10-25T08:44:17.245Z,100.00
2022-10-25T08:46:58.340Z,100.00
2022-10-25T08:49:33.858Z,100.00
2022-10-25T08:52:02.931Z,100.00
2022-10-25T08:54:34.200Z,100.00
2022-10-25T08:57:16.892Z,100.00
2022-10-25T08:59:48.031Z,100.00
2022-10-25T09:02:24.621Z,100.00
2022-10-25T09:04:52.664Z,100.00
2022-10-25T09:07:40.721Z,100.00
2022-10-25T09:10:21.869Z,100.00
2022-10-25T09:13:00.596Z,100.00
2022-10-25T09:15:43.395Z,100.00
2022-10-25T09:18:17.250Z,100.00
2022-10-25T09:20:50.687Z,100.00
2022-10-25T09:23:28.955Z,100.00
2022-10-25T09:26:04.349Z,100.00
2022-10-25T09:28:50.505Z,100.00
2022-10-25T09:31:23.147Z,100.00
2022-10-25T09:33:57.777Z,100.00
2022-10-25T09:36:31.187Z,100.00
2022-10-25T09:39:03.353Z,100.00
2022-10-25T09:41:38.626Z,100.00
2022-10-25T09:44:12.052Z,100.00
2022-10-25T09:46:44.696Z,100.00
2022-10-25T09:49:24.224Z,100.00
2022-10-25T09:52:00.686Z,100.00
2022-10-25T09:54:33.954Z,100.00
2022-10-25T09:57:02.175Z,100.00
2022-10-25T09:59:31.743Z,100.00
2022-10-25T10:01:59.892Z,100.00
2022-10-25T10:04:37.011Z,100.00
2022-10-25T10:07:09.319Z,100.00
2022-10-25T10:09:41.112Z,100.00
2022-10-25T10:12:19.354Z,100.00
2022-10-25T10:14:54.915Z,100.00
2022-10-25T10:17:24.246Z,100.00
2022-10-25T10:20:13.828Z,100.00
2022-10-25T10:22:51.620Z,100.00
2022-10-25T10:25:22.590Z,100.00
2022-10-25T10:27:53.241Z,100.00
2022-10-25T10:30:25.099Z,100.00
2022-10-25T10:33:00.289Z,100.00
2022-10-25T10:35:32.717Z,100.00
2022-10-25T10:38:15.747Z,100.00
2022-10-25T10:40:45.650Z,100.00
2022-10-25T10:43:41.109Z,100.00
2022-10-25T10:46:12.341Z,100.00
2022-10-25T10:48:43.431Z,100.00
2022-10-25T10:51:42.581Z,100.00
2022-10-25T10:54:24.539Z,100.00
2022-10-25T10:56:57.668Z,100.00
2022-10-25T10:59:34.552Z,100.00
2022-10-25T11:02:24.903Z,100.00
2022-10-25T11:04:55.139Z,100.00
2022-10-25T11:07:30.268Z,100.00
2022-10-25T11:10:21.220Z,100.00
2022-10-25T11:13:12.880Z,100.00
2022-10-25T11:16:12.250Z,100.00
2022-10-25T11:18:49.994Z,100.00
2022-10-25T11:21:30.090Z,100.00
2022-10-25T11:24:09.260Z,100.00
2022-10-25T11:26:50.790Z,100.00
2022-10-25T11:29:31.766Z,100.00
2022-10-25T11:32:09.660Z,100.00
2022-10-25T11:34:47.173Z,100.00
2022-10-25T11:37:21.957Z,100.00
2022-10-25T11:40:03.807Z,100.00
2022-10-25T11:43:06.093Z,100.00
2022-10-25T11:45:40.425Z,100.00
2022-10-25T11:48:25.616Z,100.00
2022-10-25T11:51:00.539Z,100.00
2022-10-25T11:53:55.449Z,100.00
2022-10-25T11:56:35.301Z,100.00
2022-10-25T11:59:16.264Z,100.00
2022-10-25T12:02:10.233Z,100.00
2022-10-25T12:05:02.994Z,100.00
2022-10-25T12:07:38.342Z,100.00
2022-10-25T12:10:17.319Z,100.00
2022-10-25T12:12:51.421Z,100.00
2022-10-25T12:15:23.408Z,100.00
2022-10-25T12:17:52.891Z,100.00
2022-10-25T12:20:51.200Z,100.00
2022-10-25T12:23:22.192Z,100.00
2022-10-25T12:25:53.875Z,100.00
2022-10-25T12:28:30.163Z,100.00
2022-10-25T12:31:11.386Z,100.00
2022-10-25T12:33:46.174Z,100.00
2022-10-25T12:36:19.955Z,100.00
2022-10-25T12:38:47.828Z,100.00
2022-10-25T12:41:23.050Z,100.00
2022-10-25T12:44:05.934Z,100.00
2022-10-25T12:46:57.223Z,100.00
2022-10-25T12:49:41.776Z,100.00
2022-10-25T12:52:25.358Z,100.00
2022-10-25T12:55:18.805Z,100.00
2022-10-25T12:58:01.499Z,100.00
2022-10-25T13:00:40.930Z,100.00
2022-10-25T13:03:48.310Z,100.00
2022-10-25T13:06:32.574Z,100.00
2022-10-25T13:09:08.504Z,100.00
2022-10-25T13:11:40.362Z,100.00
2022-10-25T13:14:27.560Z,100.00
2022-10-25T13:17:28.675Z,100.00
2022-10-25T13:20:32.693Z,100.00
2022-10-25T13:23:00.667Z,100.00
2022-10-25T13:26:01.971Z,100.00
2022-10-25T13:28:36.035Z,100.00
2022-10-25T13:31:58.158Z,100.00
2022-10-25T13:34:36.785Z,100.00
2022-10-25T13:37:41.036Z,100.00
2022-10-25T13:40:21.737Z,100.00
2022-10-25T13:43:12.314Z,100.00
2022-10-25T13:45:43.063Z,100.00
2022-10-25T13:48:25.459Z,100.00
2022-10-25T13:50:55.649Z,100.00
2022-10-25T13:53:27.204Z,100.00
2022-10-25T13:56:01.389Z,100.00
2022-10-25T13:58:42.819Z,100.00
2022-10-25T14:01:56.872Z,100.00
2022-10-25T14:04:37.062Z,100.00
2022-10-25T14:07:57.238Z,100.00
2022-10-25T14:10:34.401Z,100.00
2022-10-25T14:13:16.589Z,100.00
2022-10-25T14:16:01.923Z,100.00
2022-10-25T14:18:31.068Z,100.00
2022-10-25T14:21:05.258Z,100.00
2022-10-25T14:23:39.905Z,100.00
2022-10-25T14:26:21.382Z,100.00
2022-10-25T14:28:50.412Z,100.00
2022-10-25T14:31:21.193Z,100.00
2022-10-25T14:33:53.725Z,100.00
2022-10-25T14:36:29.699Z,100.00
2022-10-25T14:38:59.251Z,100.00
2022-10-25T14:41:30.449Z,100.00
2022-10-25T14:43:59.194Z,100.00
2022-10-25T14:46:30.158Z,100.00
2022-10-25T14:49:00.406Z,100.00
2022-10-25T14:51:31.944Z,100.00
2022-10-25T14:54:03.152Z,100.00
2022-10-25T14:56:36.133Z,100.00
2022-10-25T14:59:10.349Z,100.00
2022-10-25T15:01:39.768Z,100.00
2022-10-25T15:04:08.006Z,100.00
2022-10-25T15:06:36.119Z,100.00
2022-10-25T15:09:37.322Z,100.00
2022-10-25T15:12:17.544Z,100.00
2022-10-25T15:14:48.272Z,100.00
2022-10-25T15:17:19.444Z,100.00
2022-10-25T15:20:27.182Z,100.00
2022-10-25T15:23:05.030Z,100.00
2022-10-25T15:25:38.325Z,100.00
2022-10-25T15:28:15.946Z,100.00
2022-10-25T15:30:59.907Z,100.00
2022-10-25T15:33:29.718Z,100.00
2022-10-25T15:35:59.639Z,100.00
2022-10-25T15:38:42.030Z,100.00
2022-10-25T15:41:18.622Z,100.00
2022-10-25T15:43:48.224Z,100.00
2022-10-25T15:46:29.789Z,100.00
2022-10-25T15:48:59.962Z,100.00
2022-10-25T15:51:30.990Z,100.00
2022-10-25T15:53:59.412Z,100.00
2022-10-25T15:56:27.844Z,100.00
2022-10-25T15:59:00.557Z,100.00
2022-10-25T16:01:29.054Z,100.00
2022-10-25T16:03:57.489Z,100.00
2022-10-25T16:06:25.805Z,100.00
2022-10-25T16:08:53.803Z,100.00
2022-10-25T16:11:22.838Z,100.00
2022-10-25T16:13:53.991Z,100.00
2022-10-25T16:16:40.054Z,100.00
2022-10-25T16:19:14.830Z,100.00
2022-10-25T16:21:43.213Z,100.00
2022-10-25T16:24:11.865Z,100.00
2022-10-25T16:26:42.987Z,100.00
2022-10-25T16:29:17.013Z,100.00
2022-10-25T16:31:46.636Z,100.00
2022-10-25T16:34:17.332Z,100.00
2022-10-25T16:36:45.681Z,100.00
2022-10-25T16:39:14.381Z,100.00
2022-10-25T16:41:44.254Z,100.00
2022-10-25T16:44:13.643Z,100.00
2022-10-25T16:46:44.416Z,100.00
2022-10-25T16:49:13.899Z,100.00
2022-10-25T16:51:44.105Z,100.00
2022-10-25T16:54:12.681Z,100.00
2022-10-25T16:56:40.603Z,100.00
2022-10-25T16:59:08.487Z,100.00
2022-10-25T17:01:38.929Z,100.00
2022-10-25T17:04:11.470Z,100.00
2022-10-25T17:07:05.932Z,100.00
2022-10-25T17:09:33.741Z,100.00
2022-10-25T17:12:01.656Z,100.00
2022-10-25T17:14:39.846Z,100.00
2022-10-25T17:17:07.684Z,100.00
2022-10-25T17:22:20.475Z,100.00
2022-10-25T17:24:48.277Z,100.00
2022-10-25T17:27:20.220Z,100.00
2022-10-25T17:29:48.072Z,100.00
2022-10-25T17:32:15.828Z,100.00
2022-10-25T17:34:43.694Z,100.00
2022-10-25T17:37:13.892Z,100.00
2022-10-25T17:39:52.384Z,100.00
2022-10-25T17:42:20.369Z,100.00
2022-10-25T17:44:48.781Z,100.00
2022-10-25T17:47:16.780Z,100.00
2022-10-25T17:49:52.263Z,100.00
2022-10-25T17:52:20.203Z,100.00
2022-10-25T17:54:48.549Z,100.00
2022-10-25T17:57:17.877Z,100.00
2022-10-25T17:59:48.118Z,100.00
2022-10-25T18:02:16.424Z,100.00
2022-10-25T18:05:01.273Z,100.00
2022-10-25T18:07:35.152Z,100.00
2022-10-25T18:10:09.255Z,100.00
2022-10-25T18:12:41.733Z,100.00
2022-10-25T18:15:10.481Z,100.00
2022-10-25T18:17:39.641Z,100.00
2022-10-25T18:20:09.273Z,100.00
2022-10-25T18:22:37.538Z,100.00
2022-10-25T18:25:06.265Z,100.00
2022-10-25T18:27:34.564Z,100.00
2022-10-25T18:30:05.282Z,100.00
2022-10-25T18:32:36.100Z,100.00
2022-10-25T18:35:29.933Z,100.00
2022-10-25T18:37:58.214Z,100.00
2022-10-25T18:40:26.141Z,100.00
2022-10-25T18:42:54.007Z,100.00
2022-10-25T18:45:23.611Z,100.00
2022-10-25T18:47:53.930Z,100.00
2022-10-25T18:50:22.091Z,100.00
2022-10-25T18:52:50.194Z,100.00
2022-10-25T18:57:46.895Z,100.00
2022-10-25T19:00:16.756Z,100.00
2022-10-25T19:02:48.597Z,100.00
2022-10-25T19:05:16.974Z,100.00
2022-10-25T19:07:44.972Z,100.00
2022-10-25T19:10:13.128Z,100.00
2022-10-25T19:12:41.062Z,100.00
2022-10-25T19:15:11.813Z,100.00
2022-10-25T19:17:41.277Z,100.00
2022-10-25T19:20:11.345Z,100.00
2022-10-25T19:22:45.889Z,100.00
2022-10-25T19:25:24.030Z,100.00
2022-10-25T19:27:52.314Z,100.00
2022-10-25T19:30:26.781Z,100.00
2022-10-25T19:33:11.623Z,100.00
2022-10-25T19:35:47.569Z,100.00
2022-10-25T19:38:15.503Z,100.00
2022-10-25T19:40:48.095Z,100.00
2022-10-25T19:43:20.726Z,100.00
2022-10-25T19:45:48.603Z,100.00
2022-10-25T19:48:16.499Z,100.00
2022-10-25T19:50:44.571Z,100.00
2022-10-25T19:53:13.769Z,100.00
2022-10-25T19:55:41.673Z,100.00
2022-10-25T19:58:09.705Z,100.00
2022-10-25T20:00:37.663Z,100.00
2022-10-25T20:03:05.628Z,100.00
2022-10-25T20:05:33.540Z,100.00
2022-10-25T20:08:01.499Z,100.00
2022-10-25T20:10:30.833Z,100.00
2022-10-25T20:12:58.773Z,100.00
2022-10-25T20:15:26.656Z,100.00
2022-10-25T20:17:54.546Z,100.00
2022-10-25T20:20:22.625Z,100.00
2022-10-25T20:22:50.535Z,100.00
2022-10-25T20:25:18.468Z,100.00
2022-10-25T20:27:55.277Z,100.00
2022-10-25T20:30:23.149Z,100.00
2022-10-25T20:32:51.186Z,100.00
2022-10-25T20:35:21.247Z,100.00
2022-10-25T20:37:51.443Z,100.00
2022-10-25T20:40:20.739Z,100.00
2022-10-25T20:42:50.159Z,100.00
2022-10-25T20:45:18.167Z,100.00
2022-10-25T20:47:50.603Z,100.00
2022-10-25T20:50:18.895Z,100.00
2022-10-25T20:55:41.235Z,100.00
2022-10-25T20:58:10.466Z,100.00
2022-10-25T21:00:38.478Z,100.00
2022-10-25T21:03:32.219Z,100.00
2022-10-25T21:06:03.281Z,100.00
2022-10-25T21:08:31.383Z,100.00
2022-10-25T21:11:01.070Z,100.00
2022-10-25T21:13:32.720Z,100.00
2022-10-25T21:16:06.178Z,100.00
2022-10-25T21:18:34.514Z,100.00
2022-10-25T21:21:10.248Z,100.00
2022-10-25T21:23:38.799Z,100.00
2022-10-25T21:26:08.246Z,100.00
2022-10-25T21:28:42.012Z,100.00
2022-10-25T21:31:11.884Z,100.00
2022-10-25T21:33:41.631Z,100.00
2022-10-25T21:36:12.172Z,100.00
2022-10-25T21:38:40.412Z,100.00
2022-10-25T21:41:11.466Z,100.00
2022-10-25T21:43:44.745Z,100.00
2022-10-25T21:46:21.660Z,100.00
2022-10-25T21:48:50.615Z,100.00
2022-10-25T21:51:19.427Z,100.00
2022-10-25T21:53:47.908Z,100.00
2022-10-25T21:56:17.915Z,100.00
2022-10-25T21:58:49.010Z,100.00
2022-10-25T22:01:21.161Z,100.00
2022-10-25T22:03:49.224Z,100.00
2022-10-25T22:06:20.573Z,100.00
2022-10-25T22:11:34.459Z,100.00
2022-10-25T22:14:06.066Z,100.00
2022-10-25T22:16:35.195Z,100.00
2022-10-25T22:19:05.219Z,100.00
2022-10-25T22:21:35.038Z,100.00
2022-10-25T22:24:03.364Z,100.00
2022-10-25T22:26:31.914Z,100.00
2022-10-25T22:29:00.279Z,100.00
2022-10-25T22:31:33.616Z,100.00
2022-10-25T22:34:03.083Z,100.00
2022-10-25T22:36:32.516Z,100.00
2022-10-25T22:39:00.635Z,100.00
2022-10-25T22:41:30.377Z,100.00
2022-10-25T22:43:58.666Z,100.00
2022-10-25T22:46:28.259Z,100.00
2022-10-25T22:48:59.310Z,100.00
2022-10-25T22:51:28.973Z,100.00
2022-10-25T22:53:57.223Z,100.00
2022-10-25T22:56:26.575Z,100.00
2022-10-25T22:58:56.595Z,100.00
2022-10-25T23:01:26.323Z,100.00
2022-10-25T23:03:56.070Z,100.00
2022-10-25T23:06:30.609Z,100.00
2022-10-25T23:09:00.460Z,100.00
2022-10-25T23:11:30.266Z,100.00
2022-10-25T23:13:59.109Z,100.00
2022-10-25T23:16:27.584Z,100.00
2022-10-25T23:18:57.090Z,100.00
2022-10-25T23:21:27.724Z,100.00
2022-10-25T23:23:56.023Z,100.00
2022-10-25T23:26:25.972Z,100.00
2022-10-25T23:28:55.258Z,100.00
2022-10-25T23:31:23.819Z,100.00
2022-10-25T23:33:53.417Z,100.00
2022-10-25T23:36:23.252Z,100.00
2022-10-25T23:38:53.608Z,100.00
2022-10-25T23:41:29.828Z,100.00
2022-10-25T23:43:57.707Z,100.00
2022-10-25T23:46:25.628Z,100.00
2022-10-25T23:48:53.420Z,100.00
2022-10-25T23:51:21.302Z,100.00
2022-10-25T23:53:53.568Z,100.00
2022-10-25T23:56:21.428Z,100.00
2022-10-25T23:58:53.256Z,100.00
